AirNav   Duncan Aviation - Near you to keep you flying
 
 979 users online  

43G Belleville Airport
Belleville, Michigan, USA

GOING TO BELLEVILLE?


FAA INFORMATION EFFECTIVE 11 AUGUST 2022

Location

FAA Identifier: 43G
Lat/Long: 42-10-38.1605N 083-32-43.3053W
42-10.636008N 083-32.721755W
42.1772668,-83.5453626
(estimated)
Elevation: 696 ft. / 212 m (estimated)
Variation: 05W (1985)
From city: 3 miles SW of BELLEVILLE, MI
Time zone: UTC -4 (UTC -5 during Standard Time)
Zip code: 48197

Airport Operations

Airport use: Open to the public
Activation date: 06/1959
Control tower: no
ARTCC: CLEVELAND CENTER
FSS: LANSING FLIGHT SERVICE STATION
NOTAMs facility: LAN (NOTAM-D service available)
Attendance: MON-FRI 0900-1700
Wind indicator: yes
Segmented circle: yes

Airport Communications

CTAF: 122.9
WX ASOS at YIP (4 nm N): PHONE 734-961-6843
WX ASOS at DTW (9 nm E): PHONE 734-955-5015
WX ASOS at ARB (9 nm W): PHONE 734-668-7173
WX AWOS-3 at TTF (15 nm S): 119.075 (734-384-0259)
WX AWOS-3 at ONZ (18 nm E): 119.675 (734-692-9686)

Nearby radio navigation aids

VOR radial/distance  VOR name  Freq  Var
DXOr261/8.2DETROIT VOR/DME113.4006W
CRLr336/8.7CARLETON VOR/DME115.7003W
SVMr174/14.0SALEM VORTAC114.3003W

 
NDB name  Hdg/Dist  Freq  Var  ID
TECUMSEH066/17.423906WTCU - -.-. ..-
GROSSE ILE292/18.041907WRYS .-. -.-- ...
ADRIAN058/30.027806WADG .- -.. --.

Airport Services

Parking: tiedowns
Airframe service: NONE
Powerplant service: NONE
Bottled oxygen: NONE
Bulk oxygen: NONE

Runway Information

Runway 15/33

Dimensions: 2253 x 80 ft. / 687 x 24 m
Surface: turf, in fair condition
Runway edge markings: RWY & DTHR MKD WITH CONES.
RUNWAY 15  RUNWAY 33
Latitude: 42-10.793000N42-10.468500N
Longitude: 083-32.822333W083-32.580500W
Elevation: 695.0 ft.690.0 ft.
Traffic pattern: rightleft
Runway heading: 156 magnetic, 151 true336 magnetic, 331 true
Displaced threshold: 1053 ft.600 ft.
Obstructions: 6 ft. fence, 35 ft. from runway, 128 ft. left of centerline, 5:1 slope to clear
APCH RATIO 20:1 TO DTHR BASED ON STRAIGHT OUT OVR 89 FT TREES, 1790 FT DIST.
15 ft. road, 60 ft. left of centerline
APCH RATIO 21:1 TO DTHR BASED ON STRAIGHT OUT OVR 50 FT PLINE, 1065 FT DIST.

Runway 18/36

Dimensions: 2157 x 160 ft. / 657 x 49 m
Surface: turf, in fair condition
RUNWAY 18  RUNWAY 36
Latitude: 42-10.819000N42-10.464000N
Longitude: 083-32.748000W083-32.738000W
Elevation: 696.0 ft.696.0 ft.
Traffic pattern: rightleft
Runway heading: 184 magnetic, 179 true004 magnetic, 359 true
Markings: nonenone
Runway end identifier lights: nono
Obstructions: 20 ft. trees, 25 ft. from runway, 1:1 slope to clear15 ft. road, 25 ft. from runway, 1:1 slope to clear

Airport Ownership and Management from official FAA records

Ownership: Privately-owned
Owner: FARMER AVIATION LLC
7790 RAWSONVILLE RD
BELLEVILLE, MI 48111-2344
Phone 313-218-3301
Manager: KENNEY FARMER
7790 RAWSONVILLE RD
BELLEVILLE, MI 48111-2344
Phone 313-218-3301

Airport Operational Statistics

Aircraft based on the field: 9
Single engine airplanes: 7
Ultralights: 2
    
Aircraft operations: avg 42/month *
80% local general aviation
20% transient general aviation
* for 12-month period ending 31 December 2019

Additional Remarks

FLD CONDS SOFT DRG THAWING SEASON; VFY RWY/SNOW CONDS DRG WINTER OPS.
RWY 18/36 LCL USE ONLY - DSPLCMTS NOT MKD.
FOR CD CTC DETROIT APCH AT 734-955-1404.

Instrument Procedures

There are no published instrument procedures at 43G.

Some nearby airports with instrument procedures:

KYIP - Willow Run Airport (4 nm N)
KDTW - Detroit Metro Wayne County Airport (9 nm E)
KARB - Ann Arbor Municipal Airport (9 nm W)
1D2 - Canton-Plymouth-Mettetal Airport (11 nm N)
KTTF - Custer Airport (15 nm S)
KONZ - Grosse Ile Municipal Airport (18 nm E)
Y47 - Oakland Southwest Airport (20 nm N)
 
Loc | Ops | Rwys | IFR | FBO | Links
Com | Nav | Svcs | Stats | Notes
Area around 43G (Belleville Airport)
 
Road maps at: MapQuest Bing Google
 
Aerial photo
WARNING: Photo may not be current or correct
Aerial photo of 43G (Belleville Airport)
Do you have a better or more recent aerial photo of Belleville Airport that you would like to share? If so, please send us your photo.

 
Sectional chart

 
Airport distance calculator
Flying to Belleville Airport? Find the distance to fly.

From to 43G

Sunrise and sunset
Times for 13-Aug-2022
 Local
(UTC-4)
 Zulu
(UTC)
Morning civil twilight06:1010:10
Sunrise06:4110:41
Sunset20:3700:37
Evening civil twilight21:0801:08

Current date and time
Zulu (UTC)  14-Aug-2022 00:41:42
Local (UTC-4)  13-Aug-2022 20:41:42
 
METAR
KYIP 
3nm N 
132353Z 30004KT 10SM OVC060 19/11 A3011 RMK AO2 SLP194 60000 T01890111 10239 20183 55002 $
KARB 
9nm W 
734-668-7173
132353Z 04003KT 10SM FEW050 SCT090 SCT110 16/13 A3011 RMK AO2 RAE2256 PRESRR SLP194 P0000 60004 T01560128 10206 20150 55005
KDTW 
10nm E 
132353Z 33006KT 10SM BKN065 OVC160 19/12 A3010 RMK AO2 DZE08 SLP191 P0000 60000 T01890122 10228 20189 55007
KTTF 
16nm S 
140015Z AUTO 30005KT 10SM CLR 17/14 A3009 RMK AO2 T01650139
KONZ 
18nm E 
140015Z AUTO 33007KT 10SM OVC075 19/13 A3009 RMK AO2 T01920125
TAF
KYIP 
3nm N 
132320Z 1400/1424 21004KT P6SM VCSH SCT035 OVC070 FM140800 VRB04KT 5SM -SHRA BR BKN045 OVC060 FM141200 11006KT P6SM VCSH BKN035 OVC050 TEMPO 1412/1416 5SM -SHRA BR BKN022 OVC035 FM141600 11010KT P6SM BKN060 PROB30 1416/1420 4SM -SHRA BR BKN030 OVC050
KDTW 
10nm E 
132320Z 1400/1506 21004KT P6SM VCSH SCT035 OVC070 FM140800 VRB04KT 5SM -SHRA BR BKN045 OVC060 FM141200 11006KT P6SM VCSH BKN035 OVC050 TEMPO 1412/1416 5SM -SHRA BR BKN022 OVC035 FM141600 11010KT P6SM BKN060 PROB30 1416/1420 4SM -SHRA BR BKN030 OVC050 FM150000 09006KT 6SM HZ BKN025 OVC050
NOTAMs
Click for the latest NOTAMs
NOTAMs are issued by the DoD/FAA and will open in a separate window not controlled by AirNav.

 

 
 

Would you like to see your business listed on this page?

 If your business provides an interesting product or service to pilots, flight crews, aircraft, or users of the Belleville Airport, you should consider listing it here.  To start the listing process, click on the button below
 
Add a business
 

Other Pages about Belleville Airport

Page from the Michigan Airport Directory (PDF)
 
Update a link
 
Copyright © AirNav, LLC. All rights reserved. Privacy Policy  Contact